Amity, Arkansas
Current Conditions -  °F | °C
As of 7:53 PM on Monday 22 Dec 2014 (Local Time) from KMWT Reporting Station
Broken Clouds Broken Clouds  
Wind Chill: 55°   Ceiling: 2600
Heat Index: 55°   Visibility: 10mi
Dew Point: 51°   Wind: 6mph
Humidity: 86%   Direction: 310°NW
Pressure: 29.62"   Gusts: NA
Location:  34.26°N, 93.46°W
Report Text: KMWT 230153Z AUTO 31005KT 10SM SCT015 BKN026 BKN038 13/11 A2962 RMK AO2 SLP030 T01280106
Loading
Personal Weather Stations






























Interactive Weather Map New forecast layout! Learn more

10-Day Weather Forecast

Advertisements
Track Severe Weather on mobile